createdAt,value
2018-05-07T00:01:37.605Z,0.00
2018-05-07T00:02:37.563Z,0.00
2018-05-07T00:04:30.574Z,0.00
2018-05-07T00:05:30.482Z,0.00
2018-05-07T00:07:23.442Z,0.00
2018-05-07T00:08:23.393Z,0.00
2018-05-07T00:10:16.653Z,0.00
2018-05-07T00:11:16.497Z,0.00
2018-05-07T00:13:09.475Z,0.00
2018-05-07T00:14:09.440Z,0.00
2018-05-07T00:16:02.267Z,0.00
2018-05-07T00:17:02.324Z,0.00
2018-05-07T00:18:55.179Z,0.00
2018-05-07T00:19:55.125Z,0.00
2018-05-07T00:21:48.036Z,0.00
2018-05-07T00:22:47.905Z,0.00
2018-05-07T00:24:40.840Z,0.00
2018-05-07T00:25:40.808Z,0.00
2018-05-07T00:27:33.788Z,0.00
2018-05-07T00:28:33.720Z,0.00
2018-05-07T00:30:26.894Z,0.00
2018-05-07T00:31:26.853Z,0.00
2018-05-07T00:33:20.042Z,0.00
2018-05-07T00:34:20.048Z,0.00
2018-05-07T00:36:12.734Z,0.00
2018-05-07T00:37:12.699Z,0.00
2018-05-07T00:39:05.869Z,0.00
2018-05-07T00:40:05.777Z,0.00
2018-05-07T00:41:58.744Z,0.00
2018-05-07T00:42:58.705Z,0.00
2018-05-07T00:44:51.524Z,0.00
2018-05-07T00:45:51.541Z,0.00
2018-05-07T00:47:44.739Z,0.00
2018-05-07T00:48:44.607Z,0.00
2018-05-07T00:50:37.595Z,0.00
2018-05-07T00:51:37.517Z,0.00
2018-05-07T00:53:30.338Z,0.00
2018-05-07T00:54:30.394Z,0.00
2018-05-07T00:56:23.549Z,0.00
2018-05-07T00:57:23.430Z,0.00
2018-05-07T00:59:16.409Z,0.00
2018-05-07T01:00:16.356Z,0.00
2018-05-07T01:02:09.296Z,0.00
2018-05-07T01:03:09.298Z,0.00
2018-05-07T01:05:02.359Z,0.00
2018-05-07T01:06:02.207Z,0.00
2018-05-07T01:07:55.149Z,0.00
2018-05-07T01:08:55.119Z,0.00
2018-05-07T01:10:48.096Z,0.00
2018-05-07T01:11:48.044Z,0.00
2018-05-07T01:13:41.314Z,0.00
2018-05-07T01:14:41.188Z,0.00
2018-05-07T01:16:34.174Z,0.00
2018-05-07T01:17:34.144Z,0.00
2018-05-07T01:19:27.104Z,0.00
2018-05-07T01:20:27.051Z,0.00
2018-05-07T01:22:19.886Z,0.00
2018-05-07T01:23:19.842Z,0.00
2018-05-07T01:25:12.806Z,0.00
2018-05-07T01:26:12.667Z,0.00
2018-05-07T01:28:05.608Z,0.00
2018-05-07T01:29:05.559Z,0.00
2018-05-07T01:30:58.540Z,0.00
2018-05-07T01:31:58.484Z,0.00
2018-05-07T01:33:51.421Z,0.00
2018-05-07T01:34:51.372Z,0.00
2018-05-07T01:36:44.335Z,0.00
2018-05-07T01:37:44.153Z,0.00
2018-05-07T01:39:37.089Z,0.00
2018-05-07T01:40:37.065Z,0.00
2018-05-07T01:42:30.076Z,0.00
2018-05-07T01:43:30.031Z,0.00
2018-05-07T01:45:23.047Z,0.00
2018-05-07T01:46:22.844Z,0.00
2018-05-07T01:48:15.827Z,0.00
2018-05-07T01:49:15.762Z,0.00
2018-05-07T01:51:08.750Z,0.00
2018-05-07T01:52:08.700Z,0.00
2018-05-07T01:54:01.910Z,0.00
2018-05-07T01:55:01.811Z,0.00
2018-05-07T01:56:54.755Z,0.00
2018-05-07T01:57:54.702Z,0.00
2018-05-07T01:59:47.675Z,0.00
2018-05-07T02:00:47.632Z,0.00
2018-05-07T02:02:40.465Z,0.00
2018-05-07T02:03:40.444Z,0.00
2018-05-07T02:05:33.242Z,0.00
2018-05-07T02:06:33.192Z,0.00
2018-05-07T02:08:26.184Z,0.00
2018-05-07T02:09:26.126Z,0.00
2018-05-07T02:11:19.068Z,0.00
2018-05-07T02:12:19.051Z,0.00
2018-05-07T02:14:12.273Z,0.00
2018-05-07T02:15:12.128Z,0.00
2018-05-07T02:17:05.120Z,0.00
2018-05-07T02:18:05.065Z,0.00
2018-05-07T02:19:57.983Z,0.00
2018-05-07T02:20:57.981Z,0.00
2018-05-07T02:22:51.118Z,0.00
2018-05-07T02:23:51.062Z,0.00
2018-05-07T02:25:43.890Z,0.00
2018-05-07T02:26:43.846Z,0.00
2018-05-07T02:28:36.868Z,0.00
2018-05-07T02:29:36.862Z,0.00
2018-05-07T02:31:30.026Z,0.00
2018-05-07T02:32:29.877Z,0.00
2018-05-07T02:34:22.845Z,0.00
2018-05-07T02:35:22.797Z,0.00
2018-05-07T02:37:15.761Z,0.00
2018-05-07T02:38:15.707Z,0.00
2018-05-07T02:40:08.563Z,0.00
2018-05-07T02:41:08.489Z,0.00
2018-05-07T02:43:01.446Z,0.00
2018-05-07T02:44:01.276Z,0.00
2018-05-07T02:45:54.240Z,0.00
2018-05-07T02:46:54.183Z,0.00
2018-05-07T02:48:47.157Z,0.00
2018-05-07T02:49:47.186Z,0.00
2018-05-07T02:51:40.257Z,0.00
2018-05-07T02:52:40.192Z,0.00
2018-05-07T02:54:33.051Z,0.00
2018-05-07T02:55:32.962Z,0.00
2018-05-07T02:57:25.928Z,0.00
2018-05-07T02:58:26.087Z,0.00
2018-05-07T03:00:19.173Z,0.00
2018-05-07T03:01:19.031Z,0.00
2018-05-07T03:03:11.997Z,0.00
2018-05-07T03:04:11.939Z,0.00
2018-05-07T03:06:04.763Z,0.00
2018-05-07T03:07:04.711Z,0.00
2018-05-07T03:08:57.662Z,0.00
2018-05-07T03:09:57.627Z,0.00
2018-05-07T03:11:50.577Z,0.00
2018-05-07T03:12:50.483Z,0.00
2018-05-07T03:14:43.349Z,0.00
2018-05-07T03:15:43.241Z,0.00
2018-05-07T03:17:36.340Z,0.00
2018-05-07T03:18:36.356Z,0.00
2018-05-07T03:20:29.094Z,0.00
2018-05-07T03:21:29.040Z,0.00
2018-05-07T03:23:21.854Z,0.00
2018-05-07T03:24:21.826Z,0.00
2018-05-07T03:26:15.157Z,4.00
2018-05-07T03:27:15.093Z,0.00
2018-05-07T03:29:08.404Z,4.00
2018-05-07T03:30:08.343Z,4.00
2018-05-07T03:32:01.313Z,4.00
2018-05-07T03:33:01.268Z,4.00
2018-05-07T03:34:54.213Z,4.00
2018-05-07T03:35:54.168Z,4.00
2018-05-07T03:37:47.184Z,8.00
2018-05-07T03:38:47.017Z,12.00
2018-05-07T03:40:39.930Z,16.00
2018-05-07T03:41:39.783Z,16.00
2018-05-07T03:43:32.759Z,24.00
2018-05-07T03:44:32.730Z,24.00
2018-05-07T03:46:25.694Z,28.00
2018-05-07T03:47:25.649Z,32.00
2018-05-07T03:49:18.753Z,44.00
2018-05-07T03:50:18.674Z,52.00
2018-05-07T03:52:11.671Z,60.00
2018-05-07T03:53:11.613Z,64.00
2018-05-07T03:55:04.558Z,76.00
2018-05-07T03:56:04.522Z,84.00
2018-05-07T03:57:57.481Z,104.00
2018-05-07T03:58:57.359Z,108.00
2018-05-07T04:00:50.334Z,128.00
2018-05-07T04:01:50.276Z,140.00
2018-05-07T04:03:43.217Z,160.00
2018-05-07T04:04:43.177Z,168.00
2018-05-07T04:06:36.536Z,196.00
2018-05-07T04:07:36.478Z,208.00
2018-05-07T04:09:29.440Z,228.00
2018-05-07T04:10:29.405Z,240.00
2018-05-07T04:12:22.688Z,268.00
2018-05-07T04:13:22.543Z,280.00
2018-05-07T04:15:15.344Z,304.00
2018-05-07T04:16:15.318Z,316.00
2018-05-07T04:18:08.295Z,344.00
2018-05-07T04:19:08.235Z,356.00
2018-05-07T04:21:01.440Z,384.00
2018-05-07T04:22:01.297Z,396.00
2018-05-07T04:23:54.279Z,420.00
2018-05-07T04:24:54.228Z,436.00
2018-05-07T04:26:47.182Z,456.00
2018-05-07T04:27:47.144Z,472.00
2018-05-07T04:29:40.384Z,492.00
2018-05-07T04:30:40.250Z,504.00
2018-05-07T04:32:33.236Z,532.00
2018-05-07T04:33:33.159Z,544.00
2018-05-07T04:35:26.164Z,564.00
2018-05-07T04:36:26.100Z,576.00
2018-05-07T04:38:19.218Z,596.00
2018-05-07T04:39:19.195Z,608.00
2018-05-07T04:41:12.169Z,628.00
2018-05-07T04:42:12.139Z,640.00
2018-05-07T04:44:05.488Z,660.00
2018-05-07T04:45:05.363Z,668.00
2018-05-07T04:46:58.308Z,692.00
2018-05-07T04:47:58.279Z,700.00
2018-05-07T04:49:51.246Z,716.00
2018-05-07T04:50:51.185Z,728.00
2018-05-07T04:52:44.049Z,744.00
2018-05-07T04:53:43.996Z,756.00
2018-05-07T04:55:36.938Z,772.00
2018-05-07T04:56:36.795Z,780.00
2018-05-07T04:58:29.826Z,796.00
2018-05-07T04:59:29.749Z,804.00
2018-05-07T05:01:22.700Z,824.00
2018-05-07T05:02:22.668Z,832.00
2018-05-07T05:04:15.495Z,848.00
2018-05-07T05:05:15.440Z,852.00
2018-05-07T05:07:08.517Z,872.00
2018-05-07T05:08:08.403Z,876.00
2018-05-07T05:10:01.388Z,892.00
2018-05-07T05:11:01.406Z,900.00
2018-05-07T05:12:54.260Z,912.00
2018-05-07T05:13:54.230Z,920.00
2018-05-07T05:15:47.064Z,932.00
2018-05-07T05:16:47.016Z,940.00
2018-05-07T05:18:40.019Z,952.00
2018-05-07T05:19:39.918Z,960.00
2018-05-07T05:21:32.925Z,972.00
2018-05-07T05:22:32.825Z,980.00
2018-05-07T05:24:25.636Z,992.00
2018-05-07T05:25:25.609Z,996.00
2018-05-07T05:27:18.839Z,1008.00
2018-05-07T05:28:18.756Z,1012.00
2018-05-07T05:30:11.665Z,1024.00
2018-05-07T05:31:11.635Z,1032.00
2018-05-07T05:33:04.461Z,1040.00
2018-05-07T05:34:04.451Z,1048.00
2018-05-07T05:35:57.251Z,1060.00
2018-05-07T05:36:57.187Z,1064.00
2018-05-07T05:38:49.994Z,1072.00
2018-05-07T05:39:49.957Z,1076.00
2018-05-07T05:41:42.926Z,1088.00
2018-05-07T05:42:42.867Z,1092.00
2018-05-07T05:44:35.841Z,1104.00
2018-05-07T05:45:35.808Z,1108.00
2018-05-07T05:47:28.761Z,1120.00
2018-05-07T05:48:28.700Z,1124.00
2018-05-07T05:50:21.711Z,1132.00
2018-05-07T05:51:21.521Z,1140.00
2018-05-07T05:53:14.540Z,1148.00
2018-05-07T05:54:14.475Z,1148.00
2018-05-07T05:56:07.299Z,1156.00
2018-05-07T05:57:07.267Z,1164.00
2018-05-07T05:59:00.219Z,1172.00
2018-05-07T06:00:00.185Z,1180.00
2018-05-07T06:01:53.090Z,1192.00
2018-05-07T06:02:52.994Z,1196.00
2018-05-07T06:04:45.984Z,1204.00
2018-05-07T06:05:45.942Z,1208.00
2018-05-07T06:07:38.892Z,1220.00
2018-05-07T06:08:38.861Z,1224.00
2018-05-07T06:10:31.979Z,1232.00
2018-05-07T06:11:31.905Z,1240.00
2018-05-07T06:13:24.910Z,1244.00
2018-05-07T06:14:24.878Z,1252.00
2018-05-07T06:16:17.809Z,1260.00
2018-05-07T06:17:17.814Z,1264.00
2018-05-07T06:19:10.962Z,1272.00
2018-05-07T06:20:10.878Z,1280.00
2018-05-07T06:22:03.827Z,1284.00
2018-05-07T06:23:03.810Z,1292.00
2018-05-07T06:24:56.757Z,1304.00
2018-05-07T06:25:56.702Z,1304.00
2018-05-07T06:27:49.812Z,1312.00
2018-05-07T06:28:49.541Z,1316.00
2018-05-07T06:30:42.538Z,1332.00
2018-05-07T06:31:42.453Z,1336.00
2018-05-07T06:33:35.420Z,1344.00
2018-05-07T06:34:35.472Z,1348.00
2018-05-07T06:36:28.677Z,1360.00
2018-05-07T06:37:28.541Z,1368.00
2018-05-07T06:39:21.488Z,1376.00
2018-05-07T06:40:21.466Z,1380.00
2018-05-07T06:42:14.428Z,1384.00
2018-05-07T06:43:14.375Z,1392.00
2018-05-07T06:45:07.298Z,1404.00
2018-05-07T06:46:07.260Z,1408.00
2018-05-07T06:48:00.207Z,1420.00
2018-05-07T06:49:00.171Z,1424.00
2018-05-07T06:50:53.135Z,1436.00
2018-05-07T06:51:53.082Z,1440.00
2018-05-07T06:53:45.897Z,1452.00
2018-05-07T06:54:45.880Z,1460.00
2018-05-07T06:56:38.947Z,1472.00
2018-05-07T06:57:38.748Z,1476.00
2018-05-07T06:59:31.698Z,1492.00
2018-05-07T07:00:31.673Z,1496.00
2018-05-07T07:02:24.731Z,1508.00
2018-05-07T07:03:24.689Z,1516.00
2018-05-07T07:05:17.466Z,1524.00
2018-05-07T07:06:17.388Z,1532.00
2018-05-07T07:08:10.469Z,1544.00
2018-05-07T07:09:10.233Z,1552.00
2018-05-07T07:11:03.217Z,1564.00
2018-05-07T07:12:03.011Z,1568.00
2018-05-07T07:13:56.017Z,1584.00
2018-05-07T07:14:55.946Z,1588.00
2018-05-07T07:16:48.912Z,1600.00
2018-05-07T07:17:48.867Z,1608.00
2018-05-07T07:19:42.280Z,1624.00
2018-05-07T07:20:41.644Z,1628.00
2018-05-07T07:22:34.614Z,1644.00
2018-05-07T07:23:34.416Z,1652.00
2018-05-07T07:25:27.378Z,1664.00
2018-05-07T07:26:27.348Z,1672.00
2018-05-07T07:28:20.376Z,1688.00
2018-05-07T07:29:20.293Z,1696.00
2018-05-07T07:31:13.196Z,1712.00
2018-05-07T07:32:13.147Z,1720.00
2018-05-07T07:34:06.142Z,1736.00
2018-05-07T07:35:06.072Z,1744.00
2018-05-07T07:36:59.018Z,1760.00
2018-05-07T07:37:58.988Z,1768.00
2018-05-07T07:39:52.023Z,1788.00
2018-05-07T07:40:51.975Z,1796.00
2018-05-07T07:42:44.959Z,1808.00
2018-05-07T07:43:44.896Z,1816.00
2018-05-07T07:45:37.828Z,1828.00
2018-05-07T07:46:37.934Z,1836.00
2018-05-07T07:48:30.778Z,1852.00
2018-05-07T07:49:30.722Z,1860.00
2018-05-07T07:51:23.779Z,1880.00
2018-05-07T07:52:23.780Z,1888.00
2018-05-07T07:54:16.700Z,1904.00
2018-05-07T07:55:16.636Z,1916.00
2018-05-07T07:57:09.599Z,1936.00
2018-05-07T07:58:09.575Z,1936.00
2018-05-07T08:00:02.683Z,1956.00
2018-05-07T08:01:02.632Z,1960.00
2018-05-07T08:02:55.592Z,1972.00
2018-05-07T08:03:55.732Z,1980.00
2018-05-07T08:05:48.399Z,1996.00
2018-05-07T08:06:48.353Z,2004.00
2018-05-07T08:08:41.279Z,2020.00
2018-05-07T08:09:41.229Z,2032.00
2018-05-07T08:11:34.207Z,2040.00
2018-05-07T08:12:34.157Z,2048.00
2018-05-07T08:14:27.128Z,2060.00
2018-05-07T08:15:27.093Z,2068.00
2018-05-07T08:17:20.349Z,2084.00
2018-05-07T08:18:20.194Z,2088.00
2018-05-07T08:20:13.158Z,2104.00
2018-05-07T08:21:13.107Z,2112.00
2018-05-07T08:23:06.090Z,2132.00
2018-05-07T08:24:06.060Z,2136.00
2018-05-07T08:25:58.943Z,2148.00
2018-05-07T08:26:58.874Z,2156.00
2018-05-07T08:28:51.835Z,2176.00
2018-05-07T08:29:51.813Z,2184.00
2018-05-07T08:31:44.755Z,2200.00
2018-05-07T08:32:44.711Z,2208.00
2018-05-07T08:34:37.665Z,2220.00
2018-05-07T08:35:37.632Z,2228.00
2018-05-07T08:37:30.619Z,2252.00
2018-05-07T08:38:30.435Z,2256.00
2018-05-07T08:40:23.594Z,2268.00
2018-05-07T08:41:23.517Z,2280.00
2018-05-07T08:43:16.469Z,2288.00
2018-05-07T08:44:16.447Z,2296.00
2018-05-07T08:46:09.335Z,2312.00
2018-05-07T08:47:09.295Z,2320.00
2018-05-07T08:49:02.265Z,2340.00
2018-05-07T08:50:02.213Z,2356.00
2018-05-07T08:51:55.173Z,2372.00
2018-05-07T08:52:55.243Z,2380.00
2018-05-07T08:54:48.371Z,2400.00
2018-05-07T08:55:48.291Z,2408.00
2018-05-07T08:57:41.276Z,2428.00
2018-05-07T08:58:41.216Z,2432.00
2018-05-07T09:00:34.169Z,2456.00
2018-05-07T09:01:34.145Z,2472.00
2018-05-07T09:03:27.100Z,2492.00
2018-05-07T09:04:27.009Z,2504.00
2018-05-07T09:06:19.964Z,2512.00
2018-05-07T09:07:19.940Z,2520.00
2018-05-07T09:09:12.917Z,2536.00
2018-05-07T09:10:12.869Z,2548.00
2018-05-07T09:12:06.039Z,2568.00
2018-05-07T09:13:05.973Z,2580.00
2018-05-07T09:14:58.924Z,2600.00
2018-05-07T09:15:58.874Z,2616.00
2018-05-07T09:17:51.869Z,2636.00
2018-05-07T09:18:51.822Z,2648.00
2018-05-07T09:20:44.841Z,2660.00
2018-05-07T09:21:44.761Z,2672.00
2018-05-07T09:23:37.605Z,2692.00
2018-05-07T09:24:37.525Z,2708.00
2018-05-07T09:26:30.499Z,2732.00
2018-05-07T09:27:30.444Z,2736.00
2018-05-07T09:29:23.400Z,2752.00
2018-05-07T09:30:23.358Z,2756.00
2018-05-07T09:32:16.183Z,2780.00
2018-05-07T09:33:16.151Z,2792.00
2018-05-07T09:35:09.115Z,2832.00
2018-05-07T09:36:09.071Z,2844.00
2018-05-07T09:38:01.911Z,2888.00
2018-05-07T09:39:01.865Z,2896.00
2018-05-07T09:40:54.832Z,2904.00
2018-05-07T09:41:54.777Z,2920.00
2018-05-07T09:43:47.719Z,2956.00
2018-05-07T09:44:47.692Z,2988.00
2018-05-07T09:46:40.644Z,3024.00
2018-05-07T09:47:40.616Z,3040.00
2018-05-07T09:49:33.593Z,3256.00
2018-05-07T09:50:33.631Z,4192.00
2018-05-07T09:52:26.762Z,45760.00
2018-05-07T09:53:26.691Z,52448.00
2018-05-07T09:55:19.540Z,50944.00
2018-05-07T09:56:19.502Z,53824.00
2018-05-07T09:58:12.464Z,59840.00
2018-05-07T09:59:12.473Z,63168.00
2018-05-07T10:01:05.650Z,62432.00
2018-05-07T10:02:05.630Z,62432.00
2018-05-07T10:03:58.608Z,56992.00
2018-05-07T10:04:58.560Z,59136.00
2018-05-07T10:06:51.857Z,60544.00
2018-05-07T10:07:51.848Z,63680.00
2018-05-07T10:09:44.820Z,62176.00
2018-05-07T10:10:44.776Z,66336.00
2018-05-07T10:12:37.863Z,67584.00
2018-05-07T10:13:37.850Z,70528.00
2018-05-07T10:15:30.839Z,77760.00
2018-05-07T10:16:30.798Z,81920.00
2018-05-07T10:18:23.765Z,86464.00
2018-05-07T10:19:23.746Z,89408.00
2018-05-07T10:21:16.991Z,93376.00
2018-05-07T10:22:16.917Z,99552.00
2018-05-07T10:24:09.956Z,102656.00
2018-05-07T10:25:09.950Z,106592.00
2018-05-07T10:27:03.097Z,111456.00
2018-05-07T10:28:03.030Z,109120.00
2018-05-07T10:29:56.101Z,105216.00
2018-05-07T10:30:56.013Z,102240.00
2018-05-07T10:32:48.996Z,99264.00
2018-05-07T10:33:48.948Z,97536.00
2018-05-07T10:35:42.037Z,101696.00
2018-05-07T10:36:41.793Z,102176.00
2018-05-07T10:38:34.772Z,98400.00
2018-05-07T10:39:34.775Z,96672.00
2018-05-07T10:41:27.765Z,81888.00
2018-05-07T10:42:27.752Z,77568.00
2018-05-07T10:44:20.916Z,69536.00
2018-05-07T10:45:20.906Z,65664.00
2018-05-07T10:47:13.906Z,59008.00
2018-05-07T10:48:13.911Z,59168.00
2018-05-07T10:50:07.167Z,63456.00
2018-05-07T10:51:07.155Z,63168.00
2018-05-07T10:53:00.165Z,59008.00
2018-05-07T10:54:00.132Z,54848.00
2018-05-07T10:55:53.351Z,45632.00
2018-05-07T10:56:53.277Z,43328.00
2018-05-07T10:58:46.288Z,38848.00
2018-05-07T10:59:46.314Z,38272.00
2018-05-07T11:01:39.549Z,32736.00
2018-05-07T11:02:39.388Z,31168.00
2018-05-07T11:04:32.372Z,29120.00
2018-05-07T11:05:32.350Z,27456.00
2018-05-07T11:07:25.275Z,25344.00
2018-05-07T11:08:25.176Z,24384.00
2018-05-07T11:10:18.347Z,22816.00
2018-05-07T11:11:18.321Z,22208.00
2018-05-07T11:13:11.333Z,21184.00
2018-05-07T11:14:11.323Z,20864.00
2018-05-07T11:16:04.144Z,20096.00
2018-05-07T11:17:04.137Z,19744.00
2018-05-07T11:18:57.333Z,19424.00
2018-05-07T11:19:57.267Z,19264.00
2018-05-07T11:21:50.247Z,18784.00
2018-05-07T11:22:50.317Z,18464.00
2018-05-07T11:24:43.696Z,18144.00
2018-05-07T11:25:43.394Z,17984.00
2018-05-07T11:27:36.406Z,17600.00
2018-05-07T11:28:36.354Z,17504.00
2018-05-07T11:30:29.380Z,17312.00
2018-05-07T11:31:29.375Z,17376.00
2018-05-07T11:33:22.413Z,17120.00
2018-05-07T11:34:22.203Z,17024.00
2018-05-07T11:36:15.185Z,16832.00
2018-05-07T11:37:15.165Z,16960.00
2018-05-07T11:39:08.348Z,16832.00
2018-05-07T11:40:08.134Z,16800.00
2018-05-07T11:42:01.015Z,16704.00
2018-05-07T11:43:00.995Z,16480.00
2018-05-07T11:44:54.043Z,16416.00
2018-05-07T11:45:54.017Z,16352.00
2018-05-07T11:47:47.150Z,16056.00
2018-05-07T11:48:47.001Z,15948.00
2018-05-07T11:50:40.113Z,15764.00
2018-05-07T11:51:39.828Z,15768.00
2018-05-07T11:53:32.844Z,15660.00
2018-05-07T11:54:32.793Z,15608.00
2018-05-07T11:56:25.777Z,15492.00
2018-05-07T11:57:25.756Z,15468.00
2018-05-07T11:59:18.634Z,15344.00
2018-05-07T12:00:18.573Z,15256.00
2018-05-07T12:02:11.574Z,15228.00
2018-05-07T12:03:11.561Z,15240.00
2018-05-07T12:05:04.575Z,15016.00
2018-05-07T12:06:04.608Z,14948.00
2018-05-07T12:07:57.791Z,14892.00
2018-05-07T12:08:57.778Z,14964.00
2018-05-07T12:10:50.762Z,14836.00
2018-05-07T12:11:50.794Z,14796.00
2018-05-07T12:13:44.021Z,14640.00
2018-05-07T12:14:43.929Z,14616.00
2018-05-07T12:16:37.004Z,14660.00
2018-05-07T12:17:37.049Z,14656.00
2018-05-07T12:19:30.185Z,14652.00
2018-05-07T12:20:30.089Z,14644.00
2018-05-07T12:22:23.128Z,14624.00
2018-05-07T12:23:23.077Z,14676.00
2018-05-07T12:25:15.954Z,14568.00
2018-05-07T12:26:15.984Z,14576.00
2018-05-07T12:28:08.766Z,14612.00
2018-05-07T12:29:08.759Z,14628.00
2018-05-07T12:31:01.793Z,14596.00
2018-05-07T12:32:01.712Z,14644.00
2018-05-07T12:33:54.682Z,14588.00
2018-05-07T12:34:54.658Z,14528.00
2018-05-07T12:36:47.938Z,14540.00
2018-05-07T12:37:47.874Z,14504.00
2018-05-07T12:39:40.783Z,14384.00
2018-05-07T12:40:40.776Z,14304.00
2018-05-07T12:42:33.793Z,14260.00
2018-05-07T12:43:33.759Z,14240.00
2018-05-07T12:45:26.839Z,14168.00
2018-05-07T12:46:26.615Z,14136.00
2018-05-07T12:48:19.604Z,14152.00
2018-05-07T12:49:19.572Z,14196.00
2018-05-07T12:51:12.594Z,14036.00
2018-05-07T12:52:12.553Z,13896.00
2018-05-07T12:54:05.395Z,13784.00
2018-05-07T12:55:05.383Z,13692.00
2018-05-07T12:56:58.383Z,13476.00
2018-05-07T12:57:58.350Z,13292.00
2018-05-07T12:59:51.316Z,12980.00
2018-05-07T13:00:51.345Z,12856.00
2018-05-07T13:02:44.465Z,12620.00
2018-05-07T13:03:44.408Z,12664.00
2018-05-07T13:05:37.461Z,12524.00
2018-05-07T13:06:37.442Z,12432.00
2018-05-07T13:08:30.690Z,12356.00
2018-05-07T13:09:30.579Z,12296.00
2018-05-07T13:11:23.576Z,12200.00
2018-05-07T13:12:23.531Z,12144.00
2018-05-07T13:14:16.515Z,11984.00
2018-05-07T13:15:16.499Z,11976.00
2018-05-07T13:17:09.596Z,11932.00
2018-05-07T13:18:09.405Z,11876.00
2018-05-07T13:20:02.375Z,11844.00
2018-05-07T13:21:02.362Z,11768.00
2018-05-07T13:22:55.349Z,11820.00
2018-05-07T13:23:55.337Z,11800.00
2018-05-07T13:25:48.265Z,11776.00
2018-05-07T13:26:48.232Z,11748.00
2018-05-07T13:28:41.229Z,11716.00
2018-05-07T13:29:41.209Z,11728.00
2018-05-07T13:31:34.301Z,11668.00
2018-05-07T13:32:34.306Z,11664.00
2018-05-07T13:34:27.304Z,11444.00
2018-05-07T13:35:27.157Z,11336.00
2018-05-07T13:37:20.190Z,11108.00
2018-05-07T13:38:20.183Z,10964.00
2018-05-07T13:40:13.184Z,10908.00
2018-05-07T13:41:13.141Z,10872.00
2018-05-07T13:43:06.220Z,10692.00
2018-05-07T13:44:06.100Z,10628.00
2018-05-07T13:45:59.105Z,10540.00
2018-05-07T13:46:59.055Z,10540.00
2018-05-07T13:48:52.051Z,10448.00
2018-05-07T13:49:52.002Z,10404.00
2018-05-07T13:51:44.952Z,10252.00
2018-05-07T13:52:44.833Z,10304.00
2018-05-07T13:54:37.812Z,10252.00
2018-05-07T13:55:37.772Z,10156.00
2018-05-07T13:57:30.620Z,10192.00
2018-05-07T13:58:30.606Z,10104.00
2018-05-07T14:00:23.891Z,10084.00
2018-05-07T14:01:23.784Z,10180.00
2018-05-07T14:03:16.736Z,10252.00
2018-05-07T14:04:16.721Z,10408.00
2018-05-07T14:06:09.715Z,10072.00
2018-05-07T14:07:09.695Z,9884.00
2018-05-07T14:09:02.751Z,9744.00
2018-05-07T14:10:02.559Z,9692.00
2018-05-07T14:11:55.581Z,9560.00
2018-05-07T14:12:55.546Z,9516.00
2018-05-07T14:14:48.533Z,9392.00
2018-05-07T14:15:48.519Z,9336.00
2018-05-07T14:17:41.380Z,9236.00
2018-05-07T14:18:41.341Z,9272.00
2018-05-07T14:20:34.367Z,9168.00
2018-05-07T14:21:34.331Z,9132.00
2018-05-07T14:23:27.163Z,9072.00
2018-05-07T14:24:27.149Z,9020.00
2018-05-07T14:26:20.388Z,8968.00
2018-05-07T14:27:20.327Z,8920.00
2018-05-07T14:29:13.160Z,8808.00
2018-05-07T14:30:13.154Z,8796.00
2018-05-07T14:32:06.161Z,8816.00
2018-05-07T14:33:06.108Z,8784.00
2018-05-07T14:34:59.315Z,8732.00
2018-05-07T14:35:59.288Z,8752.00
2018-05-07T14:37:52.142Z,8736.00
2018-05-07T14:38:52.249Z,8700.00
2018-05-07T14:40:45.112Z,8700.00
2018-05-07T14:41:45.078Z,8664.00
2018-05-07T14:43:37.925Z,8660.00
2018-05-07T14:44:37.917Z,8652.00
2018-05-07T14:46:30.921Z,8664.00
2018-05-07T14:47:30.873Z,8660.00
2018-05-07T14:49:23.876Z,8604.00
2018-05-07T14:50:23.925Z,8576.00
2018-05-07T14:52:16.748Z,8552.00
2018-05-07T14:53:16.689Z,8512.00
2018-05-07T14:55:09.632Z,8508.00
2018-05-07T14:56:09.527Z,8500.00
2018-05-07T14:58:02.382Z,8548.00
2018-05-07T14:59:02.367Z,8560.00
2018-05-07T15:00:55.202Z,8568.00
2018-05-07T15:01:55.173Z,8588.00
2018-05-07T15:03:48.023Z,8572.00
2018-05-07T15:04:47.991Z,8524.00
2018-05-07T15:06:41.068Z,8520.00
2018-05-07T15:07:40.888Z,8584.00
2018-05-07T15:09:33.878Z,8596.00
2018-05-07T15:10:33.855Z,8640.00
2018-05-07T15:12:26.850Z,8656.00
2018-05-07T15:13:26.858Z,8680.00
2018-05-07T15:15:19.811Z,8676.00
2018-05-07T15:16:19.827Z,8724.00
2018-05-07T15:18:12.803Z,8736.00
2018-05-07T15:19:12.766Z,8728.00
2018-05-07T15:21:05.728Z,8776.00
2018-05-07T15:22:05.720Z,8788.00
2018-05-07T15:23:58.603Z,8832.00
2018-05-07T15:24:58.545Z,8848.00
2018-05-07T15:26:51.516Z,8828.00
2018-05-07T15:27:51.496Z,8840.00
2018-05-07T15:29:44.485Z,8888.00
2018-05-07T15:30:44.502Z,8900.00
2018-05-07T15:32:37.722Z,8892.00
2018-05-07T15:33:37.637Z,8912.00
2018-05-07T15:35:30.542Z,8924.00
2018-05-07T15:36:30.455Z,8940.00
2018-05-07T15:38:23.461Z,8940.00
2018-05-07T15:39:23.421Z,8968.00
2018-05-07T15:41:16.350Z,8964.00
2018-05-07T15:42:16.342Z,8956.00
2018-05-07T15:44:09.338Z,8948.00
2018-05-07T15:45:09.272Z,8928.00
2018-05-07T15:47:02.721Z,8876.00
2018-05-07T15:48:02.618Z,8824.00
2018-05-07T15:49:55.627Z,8852.00
2018-05-07T15:50:55.556Z,8884.00
2018-05-07T15:52:48.592Z,8808.00
2018-05-07T15:53:48.614Z,8824.00
2018-05-07T15:55:41.433Z,8760.00
2018-05-07T15:56:41.379Z,8732.00
2018-05-07T15:58:34.382Z,8716.00
2018-05-07T15:59:34.347Z,8680.00
2018-05-07T16:01:27.326Z,8712.00
2018-05-07T16:02:27.307Z,8660.00
2018-05-07T16:04:20.499Z,8588.00
2018-05-07T16:05:20.457Z,8548.00
2018-05-07T16:07:13.409Z,8488.00
2018-05-07T16:08:13.398Z,8480.00
2018-05-07T16:10:06.514Z,8572.00
2018-05-07T16:11:06.458Z,8520.00
2018-05-07T16:12:59.511Z,8540.00
2018-05-07T16:13:59.478Z,8496.00
2018-05-07T16:15:52.340Z,8460.00
2018-05-07T16:16:52.423Z,8436.00
2018-05-07T16:18:45.663Z,8360.00
2018-05-07T16:19:45.450Z,8332.00
2018-05-07T16:21:38.444Z,8236.00
2018-05-07T16:22:38.406Z,8216.00
2018-05-07T16:24:31.384Z,8108.00
2018-05-07T16:25:31.432Z,8048.00
2018-05-07T16:27:24.454Z,7796.00
2018-05-07T16:28:24.275Z,7472.00
2018-05-07T16:30:17.271Z,7168.00
2018-05-07T16:31:17.301Z,7104.00
2018-05-07T16:33:10.249Z,7028.00
2018-05-07T16:34:10.215Z,6992.00
2018-05-07T16:36:03.059Z,6884.00
2018-05-07T16:37:03.000Z,6812.00
2018-05-07T16:38:55.961Z,6748.00
2018-05-07T16:39:55.943Z,6692.00
2018-05-07T16:41:48.814Z,6604.00
2018-05-07T16:42:48.942Z,6568.00
2018-05-07T16:44:43.714Z,6492.00
2018-05-07T16:45:41.735Z,6432.00
2018-05-07T16:47:34.789Z,6348.00
2018-05-07T16:48:34.603Z,6312.00
2018-05-07T16:50:27.524Z,6212.00
2018-05-07T16:51:27.516Z,6184.00
2018-05-07T16:53:20.489Z,6136.00
2018-05-07T16:54:20.495Z,6084.00
2018-05-07T16:56:13.334Z,6008.00
2018-05-07T16:57:13.287Z,5956.00
2018-05-07T16:59:06.258Z,5872.00
2018-05-07T17:00:06.141Z,5808.00
2018-05-07T17:01:59.144Z,5700.00
2018-05-07T17:02:59.131Z,5636.00
2018-05-07T17:04:52.089Z,5552.00
2018-05-07T17:05:52.082Z,5496.00
2018-05-07T17:07:45.244Z,5380.00
2018-05-07T17:08:44.948Z,5320.00
2018-05-07T17:10:37.950Z,5152.00
2018-05-07T17:11:37.932Z,5212.00
2018-05-07T17:13:30.952Z,5084.00
2018-05-07T17:14:30.913Z,5028.00
2018-05-07T17:16:23.735Z,4940.00
2018-05-07T17:17:23.710Z,4876.00
2018-05-07T17:19:16.711Z,4796.00
2018-05-07T17:20:16.658Z,4732.00
2018-05-07T17:22:09.674Z,4636.00
2018-05-07T17:23:09.696Z,4584.00
2018-05-07T17:25:02.604Z,4464.00
2018-05-07T17:26:02.551Z,4412.00
2018-05-07T17:27:55.924Z,4304.00
2018-05-07T17:28:55.887Z,4252.00
2018-05-07T17:30:49.070Z,4148.00
2018-05-07T17:31:49.032Z,4092.00
2018-05-07T17:33:42.142Z,3988.00
2018-05-07T17:34:42.088Z,3932.00
2018-05-07T17:36:35.200Z,3840.00
2018-05-07T17:37:35.147Z,3784.00
2018-05-07T17:39:28.126Z,3668.00
2018-05-07T17:40:28.104Z,3624.00
2018-05-07T17:42:21.078Z,3544.00